createdAt,value
2017-12-21T00:01:54.122Z,94.30
2017-12-21T00:04:20.461Z,94.41
2017-12-21T00:06:48.087Z,94.23
2017-12-21T00:09:14.644Z,94.23
2017-12-21T00:11:41.384Z,94.26
2017-12-21T00:14:07.861Z,94.33
2017-12-21T00:16:34.491Z,94.38
2017-12-21T00:19:00.843Z,94.33
2017-12-21T00:21:27.489Z,94.46
2017-12-21T00:23:54.054Z,94.24
2017-12-21T00:26:20.238Z,94.24
2017-12-21T00:28:46.769Z,94.13
2017-12-21T00:31:13.198Z,94.19
2017-12-21T00:33:39.463Z,94.10
2017-12-21T00:36:05.913Z,94.16
2017-12-21T00:38:32.317Z,94.05
2017-12-21T00:40:58.912Z,93.94
2017-12-21T00:43:25.148Z,94.06
2017-12-21T00:46:03.640Z,94.15
2017-12-21T00:48:30.126Z,94.10
2017-12-21T00:50:56.710Z,94.05
2017-12-21T00:53:23.314Z,93.90
2017-12-21T00:55:49.694Z,93.78
2017-12-21T00:58:16.046Z,93.77
2017-12-21T01:00:42.530Z,93.95
2017-12-21T01:03:09.244Z,94.00
2017-12-21T01:05:35.633Z,94.08
2017-12-21T01:08:02.168Z,94.29
2017-12-21T01:10:28.666Z,94.36
2017-12-21T01:12:55.126Z,94.39
2017-12-21T01:15:21.732Z,94.52
2017-12-21T01:17:48.056Z,94.54
2017-12-21T01:20:14.438Z,94.36
2017-12-21T01:22:40.902Z,94.35
2017-12-21T01:25:07.410Z,94.46
2017-12-21T01:27:33.767Z,94.58
2017-12-21T01:30:00.084Z,94.82
2017-12-21T01:32:26.650Z,94.87
2017-12-21T01:34:53.190Z,94.87
2017-12-21T01:37:19.587Z,95.08
2017-12-21T01:39:45.921Z,95.17
2017-12-21T01:42:12.479Z,95.29
2017-12-21T01:44:38.917Z,95.45
2017-12-21T01:47:05.473Z,95.55
2017-12-21T01:49:32.075Z,95.56
2017-12-21T01:52:10.457Z,95.56
2017-12-21T01:54:36.855Z,95.31
2017-12-21T01:57:04.269Z,95.21
2017-12-21T01:59:31.013Z,95.25
2017-12-21T02:01:57.369Z,95.20
2017-12-21T02:04:23.793Z,95.17
2017-12-21T02:06:50.041Z,95.29
2017-12-21T02:09:16.573Z,95.21
2017-12-21T02:11:43.102Z,95.21
2017-12-21T02:14:09.766Z,95.25
2017-12-21T02:16:36.101Z,95.20
2017-12-21T02:19:02.694Z,95.30
2017-12-21T02:21:29.304Z,95.28
2017-12-21T02:23:55.748Z,95.29
2017-12-21T02:26:22.171Z,95.29
2017-12-21T02:28:48.814Z,95.45
2017-12-21T02:31:15.090Z,95.42
2017-12-21T02:33:41.834Z,95.48
2017-12-21T02:36:08.140Z,95.67
2017-12-21T02:38:34.490Z,95.82
2017-12-21T02:41:00.909Z,95.95
2017-12-21T02:43:27.434Z,96.00
2017-12-21T02:45:53.872Z,96.03
2017-12-21T02:48:20.403Z,95.85
2017-12-21T02:50:46.987Z,95.72
2017-12-21T02:53:13.515Z,95.67
2017-12-21T02:55:40.186Z,95.78
2017-12-21T02:58:07.111Z,95.91
2017-12-21T03:00:33.628Z,96.04
2017-12-21T03:02:59.937Z,96.05
2017-12-21T03:05:26.453Z,95.97
2017-12-21T03:07:53.117Z,95.80
2017-12-21T03:10:19.718Z,95.89
2017-12-21T03:12:45.956Z,95.71
2017-12-21T03:15:12.335Z,95.45
2017-12-21T03:17:38.839Z,95.35
2017-12-21T03:20:05.321Z,95.30
2017-12-21T03:22:31.632Z,95.42
2017-12-21T03:24:58.491Z,95.30
2017-12-21T03:27:24.793Z,95.32
2017-12-21T03:29:52.381Z,95.31
2017-12-21T03:32:19.095Z,95.20
2017-12-21T03:34:45.498Z,95.25
2017-12-21T03:37:11.831Z,95.27
2017-12-21T03:39:38.393Z,95.42
2017-12-21T03:42:04.900Z,95.46
2017-12-21T03:44:31.343Z,95.38
2017-12-21T03:46:57.829Z,95.17
2017-12-21T03:49:24.404Z,95.01
2017-12-21T03:51:50.818Z,95.05
2017-12-21T03:54:17.286Z,95.24
2017-12-21T03:56:43.797Z,95.15
2017-12-21T03:59:10.293Z,95.35
2017-12-21T04:01:36.953Z,95.31
2017-12-21T04:04:03.444Z,95.15
2017-12-21T04:06:29.866Z,95.19
2017-12-21T04:08:56.320Z,95.07
2017-12-21T04:11:22.952Z,95.03
2017-12-21T04:13:49.306Z,95.18
2017-12-21T04:16:15.957Z,95.33
2017-12-21T04:18:42.172Z,95.37
2017-12-21T04:21:08.940Z,95.36
2017-12-21T04:23:35.500Z,95.17
2017-12-21T04:26:01.939Z,95.30
2017-12-21T04:28:28.527Z,95.41
2017-12-21T04:30:54.916Z,95.43
2017-12-21T04:33:21.328Z,95.28
2017-12-21T04:35:47.688Z,95.29
2017-12-21T04:38:14.107Z,95.22
2017-12-21T04:40:40.720Z,95.23
2017-12-21T04:43:09.194Z,95.35
2017-12-21T04:45:35.777Z,95.60
2017-12-21T04:48:02.209Z,95.79
2017-12-21T04:50:28.663Z,95.79
2017-12-21T04:52:55.140Z,95.65
2017-12-21T04:55:21.560Z,95.69
2017-12-21T04:57:47.943Z,95.82
2017-12-21T05:00:14.481Z,96.22
2017-12-21T05:02:40.909Z,96.45
2017-12-21T05:05:07.187Z,96.62
2017-12-21T05:07:33.829Z,96.75
2017-12-21T05:10:00.539Z,96.81
2017-12-21T05:12:26.935Z,96.92
2017-12-21T05:14:53.437Z,96.90
2017-12-21T05:17:19.789Z,97.09
2017-12-21T05:19:46.197Z,97.08
2017-12-21T05:22:12.642Z,97.09
2017-12-21T05:24:39.110Z,97.01
2017-12-21T05:27:05.622Z,97.13
2017-12-21T05:29:32.173Z,97.13
2017-12-21T05:31:58.574Z,97.14
2017-12-21T05:34:24.907Z,97.22
2017-12-21T05:36:51.492Z,97.07
2017-12-21T05:39:18.046Z,97.11
2017-12-21T05:41:44.353Z,97.09
2017-12-21T05:44:10.810Z,97.19
2017-12-21T05:46:37.430Z,97.32
2017-12-21T05:49:04.916Z,97.48
2017-12-21T05:51:31.866Z,97.44
2017-12-21T05:53:58.506Z,97.47
2017-12-21T05:56:25.453Z,97.37
2017-12-21T05:58:51.922Z,97.23
2017-12-21T06:01:18.437Z,97.15
2017-12-21T06:03:45.190Z,97.08
2017-12-21T06:06:11.818Z,97.08
2017-12-21T06:08:38.445Z,96.66
2017-12-21T06:11:04.892Z,96.56
2017-12-21T06:13:31.401Z,96.53
2017-12-21T06:15:57.701Z,96.52
2017-12-21T06:18:24.010Z,96.44
2017-12-21T06:20:50.475Z,96.48
2017-12-21T06:23:16.997Z,96.47
2017-12-21T06:25:43.630Z,96.33
2017-12-21T06:28:10.028Z,96.37
2017-12-21T06:30:36.461Z,96.32
2017-12-21T06:33:03.744Z,96.12
2017-12-21T06:35:30.201Z,96.11
2017-12-21T06:37:56.703Z,96.13
2017-12-21T06:40:23.137Z,96.17
2017-12-21T06:42:49.805Z,96.04
2017-12-21T06:45:16.129Z,96.05
2017-12-21T06:47:42.651Z,95.81
2017-12-21T06:50:09.029Z,95.63
2017-12-21T06:52:35.618Z,95.63
2017-12-21T06:55:03.149Z,95.57
2017-12-21T06:57:29.835Z,95.38
2017-12-21T06:59:56.567Z,95.34
2017-12-21T07:02:23.081Z,95.33
2017-12-21T07:04:49.362Z,95.11
2017-12-21T07:07:15.760Z,95.03
2017-12-21T07:09:42.270Z,95.20
2017-12-21T07:12:08.945Z,94.97
2017-12-21T07:14:35.235Z,95.06
2017-12-21T07:17:01.945Z,95.17
2017-12-21T07:19:28.279Z,95.25
2017-12-21T07:21:54.758Z,95.30
2017-12-21T07:24:21.232Z,95.37
2017-12-21T07:26:47.583Z,95.46
2017-12-21T07:29:14.059Z,95.59
2017-12-21T07:31:40.710Z,95.68
2017-12-21T07:34:07.161Z,95.79
2017-12-21T07:36:33.756Z,95.70
2017-12-21T07:39:00.070Z,95.61
2017-12-21T07:41:26.426Z,95.57
2017-12-21T07:43:53.134Z,95.65
2017-12-21T07:46:19.906Z,95.67
2017-12-21T07:48:46.284Z,95.41
2017-12-21T07:51:12.657Z,95.21
2017-12-21T07:53:38.914Z,95.12
2017-12-21T07:56:05.555Z,94.63
2017-12-21T07:58:32.629Z,94.49
2017-12-21T08:00:59.115Z,94.28
2017-12-21T08:03:25.669Z,93.91
2017-12-21T08:05:52.153Z,93.47
2017-12-21T08:08:18.675Z,92.98
2017-12-21T08:10:45.301Z,92.70
2017-12-21T08:13:11.781Z,92.69
2017-12-21T08:15:38.485Z,92.42
2017-12-21T08:18:04.931Z,92.01
2017-12-21T08:20:31.399Z,91.40
2017-12-21T08:22:58.020Z,90.91
2017-12-21T08:25:24.484Z,90.68
2017-12-21T08:27:50.832Z,90.73
2017-12-21T08:30:17.361Z,90.03
2017-12-21T08:32:43.947Z,90.28
2017-12-21T08:35:10.470Z,90.06
2017-12-21T08:37:36.726Z,89.83
2017-12-21T08:40:03.154Z,88.86
2017-12-21T08:42:29.498Z,89.16
2017-12-21T08:44:55.956Z,88.99
2017-12-21T08:47:22.271Z,88.72
2017-12-21T08:49:48.630Z,88.44
2017-12-21T08:52:15.003Z,89.10
2017-12-21T08:54:41.538Z,88.59
2017-12-21T08:57:08.126Z,87.73
2017-12-21T08:59:34.398Z,88.00
2017-12-21T09:02:00.780Z,87.38
2017-12-21T09:04:26.874Z,87.65
2017-12-21T09:06:53.344Z,87.11
2017-12-21T09:09:19.537Z,86.94
2017-12-21T09:11:45.600Z,86.81
2017-12-21T09:14:12.038Z,86.90
2017-12-21T09:16:38.782Z,87.11
2017-12-21T09:19:05.268Z,86.60
2017-12-21T09:21:31.749Z,86.16
2017-12-21T09:23:58.283Z,86.48
2017-12-21T09:26:24.722Z,86.06
2017-12-21T09:28:51.060Z,85.78
2017-12-21T09:31:17.647Z,83.77
2017-12-21T09:33:44.041Z,83.19
2017-12-21T09:36:10.571Z,83.39
2017-12-21T09:38:37.589Z,83.33
2017-12-21T09:41:03.963Z,82.71
2017-12-21T09:43:30.379Z,82.12
2017-12-21T09:45:56.925Z,82.03
2017-12-21T09:48:23.457Z,81.90
2017-12-21T09:50:49.821Z,81.32
2017-12-21T09:53:15.925Z,79.19
2017-12-21T09:55:41.951Z,79.08
2017-12-21T09:58:08.141Z,77.93
2017-12-21T10:00:34.949Z,78.78
2017-12-21T10:03:01.078Z,77.48
2017-12-21T10:05:27.196Z,75.75
2017-12-21T10:07:53.551Z,76.60
2017-12-21T10:10:20.029Z,74.74
2017-12-21T10:12:46.100Z,75.42
2017-12-21T10:15:12.238Z,76.55
2017-12-21T10:17:38.634Z,76.36
2017-12-21T10:20:05.121Z,74.72
2017-12-21T10:22:31.572Z,74.42
2017-12-21T10:24:57.606Z,74.41
2017-12-21T10:27:24.212Z,76.76
2017-12-21T10:29:50.680Z,74.53
2017-12-21T10:32:17.176Z,76.62
2017-12-21T10:34:43.662Z,76.01
2017-12-21T10:37:10.298Z,76.05
2017-12-21T10:39:36.920Z,76.11
2017-12-21T10:42:03.314Z,74.92
2017-12-21T10:44:29.430Z,75.36
2017-12-21T10:46:55.536Z,74.46
2017-12-21T10:49:22.143Z,74.79
2017-12-21T10:51:48.380Z,75.27
2017-12-21T10:54:19.413Z,75.98
2017-12-21T10:56:47.133Z,75.29
2017-12-21T11:02:43.551Z,75.77
2017-12-21T11:05:10.136Z,75.47
2017-12-21T11:07:36.388Z,75.40
2017-12-21T11:10:02.692Z,75.54
2017-12-21T11:12:28.771Z,76.28
2017-12-21T11:14:54.928Z,75.96
2017-12-21T11:17:21.133Z,75.67
2017-12-21T11:19:47.224Z,75.81
2017-12-21T11:22:13.389Z,75.65
2017-12-21T11:27:15.081Z,74.47
2017-12-21T11:29:41.526Z,74.32
2017-12-21T11:32:07.571Z,73.83
2017-12-21T11:34:33.720Z,74.10
2017-12-21T11:36:59.874Z,73.16
2017-12-21T11:39:26.111Z,72.34
2017-12-21T11:41:52.304Z,70.97
2017-12-21T11:44:18.571Z,69.49
2017-12-21T11:46:45.826Z,68.84
2017-12-21T11:52:00.720Z,68.88
2017-12-21T11:54:26.835Z,67.57
2017-12-21T11:56:52.879Z,66.94
2017-12-21T11:59:19.192Z,66.52
2017-12-21T12:01:46.331Z,65.92
2017-12-21T12:04:12.610Z,65.70
2017-12-21T12:06:38.830Z,67.29
2017-12-21T12:09:04.970Z,67.39
2017-12-21T12:11:31.222Z,67.19
2017-12-21T12:13:57.347Z,67.49
2017-12-21T12:16:23.531Z,67.06
2017-12-21T12:18:49.745Z,67.95
2017-12-21T12:21:15.947Z,68.68
2017-12-21T12:23:42.144Z,68.31
2017-12-21T12:26:08.299Z,68.70
2017-12-21T12:28:34.583Z,68.96
2017-12-21T12:31:00.790Z,68.92
2017-12-21T12:33:27.304Z,69.87
2017-12-21T12:35:53.422Z,71.30
2017-12-21T12:38:19.643Z,70.74
2017-12-21T12:40:45.796Z,70.58
2017-12-21T12:43:12.023Z,71.15
2017-12-21T12:45:38.152Z,70.79
2017-12-21T12:48:04.271Z,71.10
2017-12-21T12:50:30.361Z,72.25
2017-12-21T12:52:56.417Z,72.19
2017-12-21T12:55:22.626Z,72.56
2017-12-21T12:57:48.963Z,71.90
2017-12-21T13:00:15.098Z,71.84
2017-12-21T13:02:41.353Z,71.88
2017-12-21T13:05:07.683Z,71.23
2017-12-21T13:10:02.579Z,70.81
2017-12-21T13:12:28.699Z,70.12
2017-12-21T13:14:55.047Z,71.70
2017-12-21T13:17:21.295Z,71.70
2017-12-21T13:19:47.477Z,71.98
2017-12-21T13:22:13.526Z,71.77
2017-12-21T13:24:39.732Z,71.82
2017-12-21T13:27:05.984Z,71.43
2017-12-21T13:29:32.363Z,71.71
2017-12-21T13:31:58.703Z,72.39
2017-12-21T13:34:24.841Z,73.06
2017-12-21T13:36:51.078Z,73.67
2017-12-21T13:39:17.310Z,73.83
2017-12-21T13:41:43.723Z,74.93
2017-12-21T13:44:09.978Z,74.41
2017-12-21T13:46:36.220Z,74.62
2017-12-21T13:49:02.610Z,74.59
2017-12-21T13:51:28.763Z,74.63
2017-12-21T13:53:55.968Z,74.87
2017-12-21T13:56:22.354Z,74.38
2017-12-21T13:58:48.684Z,74.13
2017-12-21T14:01:22.672Z,74.53
2017-12-21T14:03:48.892Z,73.86
2017-12-21T14:06:15.255Z,74.79
2017-12-21T14:08:41.601Z,74.28
2017-12-21T14:11:08.066Z,75.09
2017-12-21T14:13:34.514Z,75.77
2017-12-21T14:16:00.602Z,75.49
2017-12-21T14:18:26.722Z,74.63
2017-12-21T14:20:52.862Z,75.53
2017-12-21T14:23:19.250Z,75.94
2017-12-21T14:25:45.371Z,76.10
2017-12-21T14:28:11.618Z,76.79
2017-12-21T14:30:37.807Z,76.86
2017-12-21T14:33:03.992Z,76.11
2017-12-21T14:35:32.054Z,76.82
2017-12-21T14:37:58.279Z,76.86
2017-12-21T14:40:24.685Z,76.35
2017-12-21T14:42:52.265Z,76.64
2017-12-21T14:45:18.441Z,76.98
2017-12-21T14:47:44.647Z,76.91
2017-12-21T14:50:11.223Z,77.15
2017-12-21T14:52:37.849Z,77.74
2017-12-21T14:55:10.195Z,76.97
2017-12-21T14:57:37.442Z,78.46
2017-12-21T15:00:04.537Z,78.29
2017-12-21T15:02:30.710Z,78.45
2017-12-21T15:04:56.798Z,78.47
2017-12-21T15:07:23.167Z,79.16
2017-12-21T15:09:49.526Z,79.59
2017-12-21T15:12:15.890Z,79.74
2017-12-21T15:14:42.158Z,80.18
2017-12-21T15:17:09.727Z,80.44
2017-12-21T15:19:36.406Z,79.60
2017-12-21T15:22:02.878Z,79.72
2017-12-21T15:24:29.302Z,80.61
2017-12-21T15:26:55.596Z,81.24
2017-12-21T15:29:22.150Z,81.68
2017-12-21T15:31:48.984Z,81.71
2017-12-21T15:34:15.302Z,82.07
2017-12-21T15:36:41.878Z,82.26
2017-12-21T15:39:08.747Z,82.39
2017-12-21T15:41:34.824Z,82.75
2017-12-21T15:44:01.096Z,82.39
2017-12-21T15:46:27.368Z,82.75
2017-12-21T15:48:53.532Z,82.68
2017-12-21T15:51:19.819Z,83.10
2017-12-21T15:53:46.075Z,83.20
2017-12-21T15:56:12.408Z,84.07
2017-12-21T15:58:38.715Z,83.66
2017-12-21T16:01:04.823Z,83.88
2017-12-21T16:03:31.253Z,83.93
2017-12-21T16:05:57.561Z,84.59
2017-12-21T16:08:23.985Z,85.33
2017-12-21T16:10:50.545Z,85.60
2017-12-21T16:13:16.933Z,85.35
2017-12-21T16:15:43.129Z,85.23
2017-12-21T16:18:10.805Z,85.38
2017-12-21T16:23:15.205Z,85.79
2017-12-21T16:25:41.810Z,85.76
2017-12-21T16:28:08.033Z,85.60
2017-12-21T16:30:35.151Z,85.81
2017-12-21T16:33:01.383Z,85.71
2017-12-21T16:35:27.613Z,86.00
2017-12-21T16:37:53.800Z,86.40
2017-12-21T16:40:19.998Z,86.53
2017-12-21T16:42:47.329Z,86.30
2017-12-21T16:45:13.544Z,86.81
2017-12-21T16:47:39.713Z,87.36
2017-12-21T16:50:14.456Z,88.35
2017-12-21T16:52:40.829Z,89.64
2017-12-21T16:55:07.205Z,90.00
2017-12-21T16:57:33.457Z,90.25
2017-12-21T17:00:00.458Z,90.54
2017-12-21T17:02:26.912Z,90.78
2017-12-21T17:04:58.076Z,91.14
2017-12-21T17:07:27.673Z,91.64
2017-12-21T17:09:54.490Z,91.89
2017-12-21T17:12:21.231Z,92.00
2017-12-21T17:14:49.960Z,92.22
2017-12-21T17:17:17.891Z,92.20
2017-12-21T17:19:45.922Z,92.13
2017-12-21T17:22:12.171Z,92.08
2017-12-21T17:24:38.741Z,91.93
2017-12-21T17:27:04.917Z,91.89
2017-12-21T17:29:31.391Z,92.23
2017-12-21T17:31:57.820Z,92.42
2017-12-21T17:34:24.435Z,92.53
2017-12-21T17:36:50.896Z,92.46
2017-12-21T17:39:17.555Z,92.46
2017-12-21T17:41:44.067Z,92.70
2017-12-21T17:44:10.472Z,92.81
2017-12-21T17:46:37.040Z,92.92
2017-12-21T17:49:03.336Z,93.22
2017-12-21T17:51:29.813Z,93.43
2017-12-21T17:53:56.279Z,93.51
2017-12-21T17:56:23.625Z,93.87
2017-12-21T17:58:50.190Z,94.11
2017-12-21T18:01:16.346Z,94.65
2017-12-21T18:03:42.989Z,94.90
2017-12-21T18:06:09.186Z,95.04
2017-12-21T18:08:35.662Z,95.05
2017-12-21T18:11:01.812Z,95.01
2017-12-21T18:13:27.922Z,95.05
2017-12-21T18:15:54.323Z,95.00
2017-12-21T18:18:20.561Z,94.97
2017-12-21T18:20:46.857Z,95.07
2017-12-21T18:23:13.075Z,94.92
2017-12-21T18:25:39.328Z,94.57
2017-12-21T18:28:05.926Z,94.55
2017-12-21T18:30:32.263Z,94.61
2017-12-21T18:32:58.438Z,94.50
2017-12-21T18:35:25.108Z,94.57
2017-12-21T18:37:51.725Z,94.84
2017-12-21T18:40:18.050Z,94.51
2017-12-21T18:42:44.495Z,94.66
2017-12-21T18:45:10.776Z,94.85
2017-12-21T18:47:37.357Z,95.06
2017-12-21T18:50:03.969Z,95.17
2017-12-21T18:52:30.467Z,94.78
2017-12-21T18:54:57.382Z,94.75
2017-12-21T18:57:23.845Z,94.59
2017-12-21T18:59:50.537Z,94.67
2017-12-21T19:02:17.168Z,94.73
2017-12-21T19:04:43.734Z,94.68
2017-12-21T19:07:11.076Z,94.83
2017-12-21T19:09:37.595Z,94.86
2017-12-21T19:12:04.207Z,94.86
2017-12-21T19:14:30.789Z,94.89
2017-12-21T19:16:57.458Z,95.06
2017-12-21T19:19:24.094Z,95.15
2017-12-21T19:21:50.838Z,95.33
2017-12-21T19:24:17.539Z,95.50
2017-12-21T19:26:44.258Z,95.75
2017-12-21T19:29:13.003Z,95.97
2017-12-21T19:31:39.914Z,96.19
2017-12-21T19:34:06.922Z,96.26
2017-12-21T19:36:33.517Z,96.46
2017-12-21T19:39:00.390Z,96.53
2017-12-21T19:41:27.191Z,96.47
2017-12-21T19:43:53.981Z,96.47
2017-12-21T19:46:20.545Z,96.45
2017-12-21T19:48:48.426Z,96.10
2017-12-21T19:51:14.999Z,95.89
2017-12-21T19:53:41.959Z,95.64
2017-12-21T19:56:13.661Z,96.06
2017-12-21T19:58:40.900Z,96.40
2017-12-21T20:01:11.836Z,96.58
2017-12-21T20:03:38.638Z,96.74
2017-12-21T20:06:05.597Z,96.84
2017-12-21T20:08:33.120Z,96.75
2017-12-21T20:10:59.857Z,96.71
2017-12-21T20:13:26.613Z,96.81
2017-12-21T20:15:53.461Z,96.78
2017-12-21T20:18:20.174Z,96.62
2017-12-21T20:20:47.031Z,96.36
2017-12-21T20:23:13.755Z,96.33
2017-12-21T20:25:40.940Z,96.31
2017-12-21T20:28:07.561Z,95.94
2017-12-21T20:30:34.345Z,95.78
2017-12-21T20:33:01.320Z,95.88
2017-12-21T20:35:27.950Z,95.94
2017-12-21T20:37:54.611Z,96.13
2017-12-21T20:40:21.482Z,96.24
2017-12-21T20:42:48.547Z,96.25
2017-12-21T20:45:15.424Z,96.29
2017-12-21T20:47:42.506Z,96.33
2017-12-21T20:50:09.281Z,96.37
2017-12-21T20:52:36.186Z,96.40
2017-12-21T20:57:37.453Z,96.60
2017-12-21T21:00:03.975Z,96.66
2017-12-21T21:02:30.774Z,96.67
2017-12-21T21:04:57.520Z,96.71
2017-12-21T21:07:24.223Z,96.59
2017-12-21T21:09:50.706Z,96.58
2017-12-21T21:12:17.479Z,96.40
2017-12-21T21:14:44.219Z,96.55
2017-12-21T21:17:10.865Z,96.60
2017-12-21T21:19:37.399Z,96.87
2017-12-21T21:22:03.881Z,96.86
2017-12-21T21:24:30.585Z,96.84
2017-12-21T21:26:57.382Z,96.87
2017-12-21T21:29:24.158Z,97.03
2017-12-21T21:31:50.706Z,97.32
2017-12-21T21:34:17.411Z,97.50
2017-12-21T21:36:44.001Z,97.55
2017-12-21T21:39:10.539Z,97.47
2017-12-21T21:41:37.179Z,97.63
2017-12-21T21:44:03.744Z,97.77
2017-12-21T21:46:30.472Z,97.99
2017-12-21T21:48:56.801Z,97.80
2017-12-21T21:51:23.266Z,97.70
2017-12-21T21:53:49.890Z,97.79
2017-12-21T21:56:16.226Z,97.86
2017-12-21T21:58:42.432Z,97.76
2017-12-21T22:01:12.533Z,97.89
2017-12-21T22:03:38.790Z,97.97
2017-12-21T22:06:05.171Z,98.02
2017-12-21T22:08:31.387Z,98.02
2017-12-21T22:10:57.875Z,97.98
2017-12-21T22:13:24.248Z,98.00
2017-12-21T22:15:51.711Z,98.07
2017-12-21T22:18:18.129Z,98.03
2017-12-21T22:20:44.442Z,97.93
2017-12-21T22:23:10.760Z,97.91
2017-12-21T22:25:37.288Z,97.79
2017-12-21T22:28:03.765Z,97.76
2017-12-21T22:30:30.163Z,97.71
2017-12-21T22:32:56.851Z,97.73
2017-12-21T22:35:23.302Z,97.71
2017-12-21T22:37:49.629Z,97.70
2017-12-21T22:40:16.137Z,97.70
2017-12-21T22:42:42.455Z,97.73
2017-12-21T22:45:09.026Z,97.82
2017-12-21T22:47:35.567Z,97.85
2017-12-21T22:50:01.770Z,97.99
2017-12-21T22:52:28.252Z,98.11
2017-12-21T22:54:54.807Z,98.16
2017-12-21T22:57:21.030Z,98.26
2017-12-21T22:59:47.408Z,98.24
2017-12-21T23:02:13.869Z,98.28
2017-12-21T23:04:40.253Z,98.20
2017-12-21T23:07:07.025Z,98.04
2017-12-21T23:09:33.399Z,98.04
2017-12-21T23:12:00.251Z,98.08
2017-12-21T23:14:26.458Z,98.22
2017-12-21T23:16:52.807Z,98.36
2017-12-21T23:19:19.151Z,98.40
2017-12-21T23:21:45.397Z,98.39
2017-12-21T23:24:11.911Z,98.44
2017-12-21T23:26:38.169Z,98.49
2017-12-21T23:29:04.568Z,98.56
2017-12-21T23:31:31.138Z,98.40
2017-12-21T23:33:57.638Z,98.29
2017-12-21T23:36:24.072Z,98.39
2017-12-21T23:38:50.330Z,98.46
2017-12-21T23:41:16.624Z,98.44
2017-12-21T23:43:42.908Z,98.47
2017-12-21T23:46:09.239Z,98.12
2017-12-21T23:48:35.714Z,97.89
2017-12-21T23:51:02.151Z,97.71
2017-12-21T23:53:28.578Z,97.35
2017-12-21T23:55:54.825Z,97.35
2017-12-21T23:58:21.319Z,97.32
